sensor_id;sensor_type;location;lat;lon;timestamp;pressure;altitude;pressure_sealevel;temperature;humidity
26376;BME280;30544;42.196;24.336;2023-02-18T00:02:11;99904.66;;;7.05;48.66
26376;BME280;30544;42.196;24.336;2023-02-18T00:04:38;99899.81;;;7.07;48.87
26376;BME280;30544;42.196;24.336;2023-02-18T00:07:04;99900.59;;;6.94;49.56
26376;BME280;30544;42.196;24.336;2023-02-18T00:09:31;99906.94;;;6.81;50.10
26376;BME280;30544;42.196;24.336;2023-02-18T00:11:59;99892.66;;;6.64;50.07
26376;BME280;30544;42.196;24.336;2023-02-18T00:14:26;99892.03;;;6.69;50.21
26376;BME280;30544;42.196;24.336;2023-02-18T00:16:53;99895.47;;;6.78;49.92
26376;BME280;30544;42.196;24.336;2023-02-18T00:19:20;99885.88;;;6.67;50.58
26376;BME280;30544;42.196;24.336;2023-02-18T00:21:47;99891.59;;;6.59;50.63
26376;BME280;30544;42.196;24.336;2023-02-18T00:24:15;99880.19;;;6.75;50.13
26376;BME280;30544;42.196;24.336;2023-02-18T00:26:43;99876.19;;;6.84;49.47
26376;BME280;30544;42.196;24.336;2023-02-18T00:29:11;99880.84;;;6.84;49.30
26376;BME280;30544;42.196;24.336;2023-02-18T00:31:38;99880.88;;;6.90;49.69
26376;BME280;30544;42.196;24.336;2023-02-18T00:34:05;99880.03;;;6.97;49.70
26376;BME280;30544;42.196;24.336;2023-02-18T00:36:32;99875.16;;;6.99;49.58
26376;BME280;30544;42.196;24.336;2023-02-18T00:39:01;99876.00;;;6.92;49.58
26376;BME280;30544;42.196;24.336;2023-02-18T00:41:29;99865.19;;;6.91;50.78
26376;BME280;30544;42.196;24.336;2023-02-18T00:43:56;99869.00;;;6.90;50.17
26376;BME280;30544;42.196;24.336;2023-02-18T00:46:24;99867.06;;;6.84;49.78
26376;BME280;30544;42.196;24.336;2023-02-18T00:48:52;99863.88;;;6.74;49.58
26376;BME280;30544;42.196;24.336;2023-02-18T00:51:19;99861.75;;;6.76;49.82
26376;BME280;30544;42.196;24.336;2023-02-18T00:53:45;99849.44;;;6.78;49.97
26376;BME280;30544;42.196;24.336;2023-02-18T00:56:12;99849.06;;;6.94;49.72
26376;BME280;30544;42.196;24.336;2023-02-18T00:58:39;99848.22;;;6.94;49.34
26376;BME280;30544;42.196;24.336;2023-02-18T01:01:07;99842.28;;;7.10;48.72
26376;BME280;30544;42.196;24.336;2023-02-18T01:03:37;99824.69;;;7.31;47.79
26376;BME280;30544;42.196;24.336;2023-02-18T01:06:05;99827.03;;;7.28;47.81
26376;BME280;30544;42.196;24.336;2023-02-18T01:08:32;99820.25;;;7.23;48.24
26376;BME280;30544;42.196;24.336;2023-02-18T01:10:59;99813.44;;;7.26;48.35
26376;BME280;30544;42.196;24.336;2023-02-18T01:13:26;99810.69;;;7.26;47.71
26376;BME280;30544;42.196;24.336;2023-02-18T01:15:54;99808.34;;;7.30;47.75
26376;BME280;30544;42.196;24.336;2023-02-18T01:18:21;99799.88;;;7.24;48.14
26376;BME280;30544;42.196;24.336;2023-02-18T01:20:49;99787.53;;;7.27;48.14
26376;BME280;30544;42.196;24.336;2023-02-18T01:23:16;99782.66;;;7.36;48.38
26376;BME280;30544;42.196;24.336;2023-02-18T01:25:44;99794.34;;;7.31;47.43
26376;BME280;30544;42.196;24.336;2023-02-18T01:28:12;99783.72;;;7.41;47.33
26376;BME280;30544;42.196;24.336;2023-02-18T01:30:40;99781.59;;;7.43;46.94
26376;BME280;30544;42.196;24.336;2023-02-18T01:33:08;99773.31;;;7.37;47.19
26376;BME280;30544;42.196;24.336;2023-02-18T01:35:37;99776.28;;;7.42;46.93
26376;BME280;30544;42.196;24.336;2023-02-18T01:38:06;99775.41;;;7.48;47.63
26376;BME280;30544;42.196;24.336;2023-02-18T01:40:33;99776.91;;;7.44;47.08
26376;BME280;30544;42.196;24.336;2023-02-18T01:43:00;99778.19;;;7.41;47.42
26376;BME280;30544;42.196;24.336;2023-02-18T01:45:50;99779.44;;;7.39;47.55
26376;BME280;30544;42.196;24.336;2023-02-18T01:48:20;99778.00;;;7.23;47.47
26376;BME280;30544;42.196;24.336;2023-02-18T01:50:49;99778.63;;;7.25;47.66
26376;BME280;30544;42.196;24.336;2023-02-18T01:53:22;99777.78;;;7.11;47.72
26376;BME280;30544;42.196;24.336;2023-02-18T01:55:50;99786.47;;;7.02;48.32
26376;BME280;30544;42.196;24.336;2023-02-18T01:58:17;99795.81;;;6.94;48.82
26376;BME280;30544;42.196;24.336;2023-02-18T02:00:44;99783.94;;;7.13;47.97
26376;BME280;30544;42.196;24.336;2023-02-18T02:03:10;99791.53;;;6.78;48.81
26376;BME280;30544;42.196;24.336;2023-02-18T02:05:37;99796.38;;;6.70;49.02
26376;BME280;30544;42.196;24.336;2023-02-18T02:08:05;99801.50;;;6.79;48.52
26376;BME280;30544;42.196;24.336;2023-02-18T02:10:42;99796.22;;;6.78;48.71
26376;BME280;30544;42.196;24.336;2023-02-18T02:13:16;99795.59;;;6.96;48.04
26376;BME280;30544;42.196;24.336;2023-02-18T02:15:49;99797.09;;;7.11;47.78
26376;BME280;30544;42.196;24.336;2023-02-18T02:18:38;99798.56;;;7.14;47.68
26376;BME280;30544;42.196;24.336;2023-02-18T02:27:31;99796.03;;;7.45;46.72
26376;BME280;30544;42.196;24.336;2023-02-18T02:30:41;99796.88;;;7.13;48.39
26376;BME280;30544;42.196;24.336;2023-02-18T02:33:28;99800.06;;;6.97;48.94
26376;BME280;30544;42.196;24.336;2023-02-18T02:36:10;99801.50;;;6.79;49.12
26376;BME280;30544;42.196;24.336;2023-02-18T02:38:46;99792.16;;;6.67;49.40
26376;BME280;30544;42.196;24.336;2023-02-18T02:41:23;99800.00;;;6.70;48.99
26376;BME280;30544;42.196;24.336;2023-02-18T02:43:57;99803.16;;;6.60;49.60
26376;BME280;30544;42.196;24.336;2023-02-18T02:46:28;99801.22;;;6.54;49.67
26376;BME280;30544;42.196;24.336;2023-02-18T02:49:01;99807.78;;;6.40;50.39
26376;BME280;30544;42.196;24.336;2023-02-18T02:51:34;99801.09;;;6.21;51.04
26376;BME280;30544;42.196;24.336;2023-02-18T02:54:14;99803.00;;;6.21;51.08
26376;BME280;30544;42.196;24.336;2023-02-18T02:56:41;99806.06;;;5.91;51.73
26376;BME280;30544;42.196;24.336;2023-02-18T02:59:11;99807.03;;;5.84;52.22
26376;BME280;30544;42.196;24.336;2023-02-18T03:01:46;99818.38;;;5.67;53.01
26376;BME280;30544;42.196;24.336;2023-02-18T03:04:43;99806.09;;;5.70;52.40
26376;BME280;30544;42.196;24.336;2023-02-18T03:10:24;99788.69;;;5.56;53.19
26376;BME280;30544;42.196;24.336;2023-02-18T03:13:03;99793.59;;;5.67;52.52
26376;BME280;30544;42.196;24.336;2023-02-18T03:15:39;99794.66;;;5.66;53.10
26376;BME280;30544;42.196;24.336;2023-02-18T03:18:16;99780.88;;;5.60;53.44
26376;BME280;30544;42.196;24.336;2023-02-18T03:20:52;99775.50;;;5.52;53.96
26376;BME280;30544;42.196;24.336;2023-02-18T03:23:26;99771.91;;;5.51;53.73
26376;BME280;30544;42.196;24.336;2023-02-18T03:25:55;99768.31;;;5.51;53.88
26376;BME280;30544;42.196;24.336;2023-02-18T03:28:25;99756.09;;;5.60;53.41
26376;BME280;30544;42.196;24.336;2023-02-18T03:30:59;99771.13;;;5.57;53.67
26376;BME280;30544;42.196;24.336;2023-02-18T03:33:31;99769.00;;;5.25;54.43
26376;BME280;30544;42.196;24.336;2023-02-18T03:36:01;99772.50;;;5.40;54.09
26376;BME280;30544;42.196;24.336;2023-02-18T03:38:34;99780.09;;;5.38;54.62
26376;BME280;30544;42.196;24.336;2023-02-18T03:41:02;99784.91;;;5.36;54.47
26376;BME280;30544;42.196;24.336;2023-02-18T03:43:30;99782.09;;;5.23;54.90
26376;BME280;30544;42.196;24.336;2023-02-18T03:45:57;99784.78;;;5.44;55.03
26376;BME280;30544;42.196;24.336;2023-02-18T03:48:24;99792.38;;;5.42;54.30
26376;BME280;30544;42.196;24.336;2023-02-18T03:50:51;99796.19;;;5.41;54.02
26376;BME280;30544;42.196;24.336;2023-02-18T03:53:18;99794.78;;;5.52;53.62
26376;BME280;30544;42.196;24.336;2023-02-18T03:55:46;99803.00;;;5.45;53.76
26376;BME280;30544;42.196;24.336;2023-02-18T03:58:13;99799.38;;;5.44;54.55
26376;BME280;30544;42.196;24.336;2023-02-18T04:00:40;99805.34;;;5.48;54.47
26376;BME280;30544;42.196;24.336;2023-02-18T04:03:07;99819.25;;;5.40;54.47
26376;BME280;30544;42.196;24.336;2023-02-18T04:05:33;99821.44;;;5.51;53.81
26376;BME280;30544;42.196;24.336;2023-02-18T04:08:00;99824.38;;;5.50;54.40
26376;BME280;30544;42.196;24.336;2023-02-18T04:10:27;99828.13;;;5.14;54.92
26376;BME280;30544;42.196;24.336;2023-02-18T04:12:56;99832.59;;;5.43;54.73
26376;BME280;30544;42.196;24.336;2023-02-18T04:15:22;99821.97;;;5.68;53.55
26376;BME280;30544;42.196;24.336;2023-02-18T04:17:49;99830.06;;;6.04;51.80
26376;BME280;30544;42.196;24.336;2023-02-18T04:20:16;99830.38;;;6.22;51.68
26376;BME280;30544;42.196;24.336;2023-02-18T04:22:43;99834.03;;;6.36;50.90
26376;BME280;30544;42.196;24.336;2023-02-18T04:25:10;99830.06;;;6.52;50.74
26376;BME280;30544;42.196;24.336;2023-02-18T04:27:37;99825.19;;;6.54;51.04
26376;BME280;30544;42.196;24.336;2023-02-18T04:30:06;99820.78;;;6.66;50.33
26376;BME280;30544;42.196;24.336;2023-02-18T04:32:33;99826.31;;;6.86;49.49
26376;BME280;30544;42.196;24.336;2023-02-18T04:35:00;99825.75;;;7.17;48.59
26376;BME280;30544;42.196;24.336;2023-02-18T04:37:27;99818.75;;;7.41;48.09
26376;BME280;30544;42.196;24.336;2023-02-18T04:39:54;99819.78;;;7.66;47.64
26376;BME280;30544;42.196;24.336;2023-02-18T04:42:21;99822.13;;;7.76;47.00
26376;BME280;30544;42.196;24.336;2023-02-18T04:44:48;99817.19;;;7.91;45.81
26376;BME280;30544;42.196;24.336;2023-02-18T04:47:16;99812.91;;;8.08;45.89
26376;BME280;30544;42.196;24.336;2023-02-18T04:49:43;99809.19;;;8.34;45.48
26376;BME280;30544;42.196;24.336;2023-02-18T04:52:09;99803.44;;;8.36;44.80
26376;BME280;30544;42.196;24.336;2023-02-18T04:54:36;99807.91;;;8.37;45.88
26376;BME280;30544;42.196;24.336;2023-02-18T04:57:03;99808.63;;;8.12;45.64
26376;BME280;30544;42.196;24.336;2023-02-18T04:59:30;99808.91;;;7.84;46.49
26376;BME280;30544;42.196;24.336;2023-02-18T05:01:56;99811.06;;;7.69;47.09
26376;BME280;30544;42.196;24.336;2023-02-18T05:04:25;99809.53;;;7.87;46.01
26376;BME280;30544;42.196;24.336;2023-02-18T05:06:51;99807.00;;;7.72;46.95
26376;BME280;30544;42.196;24.336;2023-02-18T05:09:18;99814.44;;;7.71;46.76
26376;BME280;30544;42.196;24.336;2023-02-18T05:11:45;99806.63;;;7.62;46.75
26376;BME280;30544;42.196;24.336;2023-02-18T05:14:12;99803.22;;;7.60;47.29
26376;BME280;30544;42.196;24.336;2023-02-18T05:16:39;99809.41;;;7.15;48.08
26376;BME280;30544;42.196;24.336;2023-02-18T05:19:06;99799.22;;;7.29;48.01
26376;BME280;30544;42.196;24.336;2023-02-18T05:21:35;99808.56;;;7.08;48.55
26376;BME280;30544;42.196;24.336;2023-02-18T05:24:05;99803.88;;;6.89;49.14
26376;BME280;30544;42.196;24.336;2023-02-18T05:26:33;99817.66;;;7.02;48.76
26376;BME280;30544;42.196;24.336;2023-02-18T05:28:59;99810.88;;;7.05;48.75
26376;BME280;30544;42.196;24.336;2023-02-18T05:31:26;99818.50;;;7.03;49.04
26376;BME280;30544;42.196;24.336;2023-02-18T05:33:53;99817.44;;;7.04;48.76
26376;BME280;30544;42.196;24.336;2023-02-18T05:36:20;99814.28;;;7.27;48.64
26376;BME280;30544;42.196;24.336;2023-02-18T05:38:48;99818.94;;;7.00;48.71
26376;BME280;30544;42.196;24.336;2023-02-18T05:41:15;99811.31;;;7.28;47.35
26376;BME280;30544;42.196;24.336;2023-02-18T05:43:41;99821.50;;;7.47;47.27
26376;BME280;30544;42.196;24.336;2023-02-18T05:46:22;99824.25;;;7.54;46.81
26376;BME280;30544;42.196;24.336;2023-02-18T05:48:49;99814.72;;;7.57;47.18
26376;BME280;30544;42.196;24.336;2023-02-18T05:51:16;99810.66;;;7.66;47.13
26376;BME280;30544;42.196;24.336;2023-02-18T05:53:43;99816.78;;;7.81;46.64
26376;BME280;30544;42.196;24.336;2023-02-18T05:56:11;99815.50;;;7.90;46.19
26376;BME280;30544;42.196;24.336;2023-02-18T05:58:37;99812.94;;;7.89;46.02
26376;BME280;30544;42.196;24.336;2023-02-18T06:01:04;99807.63;;;7.87;45.81
26376;BME280;30544;42.196;24.336;2023-02-18T06:03:31;99799.56;;;7.92;46.33
26376;BME280;30544;42.196;24.336;2023-02-18T06:05:58;99816.69;;;8.14;45.09
26376;BME280;30544;42.196;24.336;2023-02-18T06:08:25;99813.69;;;8.22;45.67
26376;BME280;30544;42.196;24.336;2023-02-18T06:10:51;99815.78;;;8.33;44.94
26376;BME280;30544;42.196;24.336;2023-02-18T06:13:20;99823.63;;;8.43;44.59
26376;BME280;30544;42.196;24.336;2023-02-18T06:15:49;99813.66;;;8.42;44.85
26376;BME280;30544;42.196;24.336;2023-02-18T06:18:16;99815.03;;;8.64;44.34
26376;BME280;30544;42.196;24.336;2023-02-18T06:20:45;99819.34;;;8.85;43.53
26376;BME280;30544;42.196;24.336;2023-02-18T06:23:13;99817.97;;;9.01;43.32
26376;BME280;30544;42.196;24.336;2023-02-18T06:25:39;99818.88;;;8.95;43.28
26376;BME280;30544;42.196;24.336;2023-02-18T06:28:06;99807.66;;;9.15;42.82
26376;BME280;30544;42.196;24.336;2023-02-18T06:30:35;99808.34;;;9.35;41.72
26376;BME280;30544;42.196;24.336;2023-02-18T06:33:03;99808.41;;;9.53;41.23
26376;BME280;30544;42.196;24.336;2023-02-18T06:35:30;99801.94;;;9.84;41.18
26376;BME280;30544;42.196;24.336;2023-02-18T06:37:57;99798.31;;;10.20;40.89
26376;BME280;30544;42.196;24.336;2023-02-18T06:40:24;99796.50;;;10.14;40.30
26376;BME280;30544;42.196;24.336;2023-02-18T06:42:52;99790.25;;;10.37;40.42
26376;BME280;30544;42.196;24.336;2023-02-18T06:45:18;99783.22;;;10.53;40.71
26376;BME280;30544;42.196;24.336;2023-02-18T06:47:47;99778.88;;;10.45;40.97
26376;BME280;30544;42.196;24.336;2023-02-18T06:50:14;99768.09;;;10.67;40.87
26376;BME280;30544;42.196;24.336;2023-02-18T06:52:40;99771.66;;;10.86;40.10
26376;BME280;30544;42.196;24.336;2023-02-18T06:55:08;99761.03;;;10.53;40.26
26376;BME280;30544;42.196;24.336;2023-02-18T06:57:34;99753.44;;;10.48;40.72
26376;BME280;30544;42.196;24.336;2023-02-18T07:00:02;99757.19;;;10.84;40.58
26376;BME280;30544;42.196;24.336;2023-02-18T07:02:29;99761.78;;;10.90;39.75
26376;BME280;30544;42.196;24.336;2023-02-18T07:04:58;99757.06;;;10.91;39.89
26376;BME280;30544;42.196;24.336;2023-02-18T07:07:25;99758.25;;;10.83;39.48
26376;BME280;30544;42.196;24.336;2023-02-18T07:09:51;99749.25;;;10.99;39.83
26376;BME280;30544;42.196;24.336;2023-02-18T07:12:18;99750.00;;;11.06;39.62
26376;BME280;30544;42.196;24.336;2023-02-18T07:14:45;99748.28;;;11.05;39.99
26376;BME280;30544;42.196;24.336;2023-02-18T07:17:12;99753.09;;;10.87;41.01
26376;BME280;30544;42.196;24.336;2023-02-18T07:19:39;99750.72;;;11.02;40.36
26376;BME280;30544;42.196;24.336;2023-02-18T07:22:07;99748.94;;;11.19;40.46
26376;BME280;30544;42.196;24.336;2023-02-18T07:24:34;99753.13;;;10.98;40.83
26376;BME280;30544;42.196;24.336;2023-02-18T07:27:01;99747.94;;;11.02;40.26
26376;BME280;30544;42.196;24.336;2023-02-18T07:29:28;99743.66;;;11.53;39.58
26376;BME280;30544;42.196;24.336;2023-02-18T07:31:55;99752.59;;;11.43;40.05
26376;BME280;30544;42.196;24.336;2023-02-18T07:34:22;99740.63;;;11.78;39.11
26376;BME280;30544;42.196;24.336;2023-02-18T07:36:48;99741.97;;;11.63;39.18
26376;BME280;30544;42.196;24.336;2023-02-18T07:39:17;99743.16;;;11.67;38.29
26376;BME280;30544;42.196;24.336;2023-02-18T07:41:45;99729.09;;;12.21;38.51
26376;BME280;30544;42.196;24.336;2023-02-18T07:44:12;99728.03;;;12.50;37.65
26376;BME280;30544;42.196;24.336;2023-02-18T07:46:39;99734.53;;;12.56;37.60
26376;BME280;30544;42.196;24.336;2023-02-18T07:49:06;99728.91;;;12.68;36.33
26376;BME280;30544;42.196;24.336;2023-02-18T07:51:33;99738.16;;;12.56;36.39
26376;BME280;30544;42.196;24.336;2023-02-18T07:54:00;99726.16;;;12.84;35.81
26376;BME280;30544;42.196;24.336;2023-02-18T07:56:28;99725.41;;;12.89;35.32
26376;BME280;30544;42.196;24.336;2023-02-18T07:58:54;99715.84;;;13.30;34.70
26376;BME280;30544;42.196;24.336;2023-02-18T08:01:21;99717.44;;;13.43;34.39
26376;BME280;30544;42.196;24.336;2023-02-18T08:03:48;99712.78;;;13.65;34.19
26376;BME280;30544;42.196;24.336;2023-02-18T08:06:20;99725.00;;;13.81;34.03
26376;BME280;30544;42.196;24.336;2023-02-18T08:08:47;99722.44;;;14.18;34.09
26376;BME280;30544;42.196;24.336;2023-02-18T08:11:14;99715.13;;;14.12;33.24
26376;BME280;30544;42.196;24.336;2023-02-18T08:13:43;99707.47;;;14.46;33.54
26376;BME280;30544;42.196;24.336;2023-02-18T08:16:09;99706.94;;;14.76;33.20
26376;BME280;30544;42.196;24.336;2023-02-18T08:18:36;99695.41;;;14.67;32.55
26376;BME280;30544;42.196;24.336;2023-02-18T08:21:03;99699.78;;;15.12;32.32
26376;BME280;30544;42.196;24.336;2023-02-18T08:23:30;99696.44;;;15.52;32.03
26376;BME280;30544;42.196;24.336;2023-02-18T08:25:57;99697.25;;;15.48;31.52
26376;BME280;30544;42.196;24.336;2023-02-18T08:28:24;99694.88;;;16.14;31.61
26376;BME280;30544;42.196;24.336;2023-02-18T08:30:53;99693.19;;;16.13;30.52
26376;BME280;30544;42.196;24.336;2023-02-18T08:33:21;99692.81;;;15.94;29.79
26376;BME280;30544;42.196;24.336;2023-02-18T08:35:50;99692.03;;;16.04;29.75
26376;BME280;30544;42.196;24.336;2023-02-18T08:38:17;99679.81;;;16.25;29.02
26376;BME280;30544;42.196;24.336;2023-02-18T08:40:45;99688.88;;;16.63;29.15
26376;BME280;30544;42.196;24.336;2023-02-18T08:43:12;99684.22;;;16.99;28.89
26376;BME280;30544;42.196;24.336;2023-02-18T08:45:39;99695.97;;;16.80;28.50
26376;BME280;30544;42.196;24.336;2023-02-18T08:48:14;99689.28;;;16.97;28.71
26376;BME280;30544;42.196;24.336;2023-02-18T08:50:40;99685.06;;;17.20;28.34
26376;BME280;30544;42.196;24.336;2023-02-18T08:53:07;99680.88;;;17.48;28.14
26376;BME280;30544;42.196;24.336;2023-02-18T08:55:34;99679.47;;;17.40;28.31
26376;BME280;30544;42.196;24.336;2023-02-18T08:58:03;99696.28;;;17.25;28.53
26376;BME280;30544;42.196;24.336;2023-02-18T09:00:30;99693.47;;;17.25;28.74
26376;BME280;30544;42.196;24.336;2023-02-18T09:02:57;99705.22;;;17.11;28.91
26376;BME280;30544;42.196;24.336;2023-02-18T09:05:25;99686.19;;;17.49;28.34
26376;BME280;30544;42.196;24.336;2023-02-18T09:07:52;99690.94;;;17.64;28.44
26376;BME280;30544;42.196;24.336;2023-02-18T09:10:19;99690.91;;;17.89;28.36
26376;BME280;30544;42.196;24.336;2023-02-18T09:12:46;99699.06;;;17.65;28.68
26376;BME280;30544;42.196;24.336;2023-02-18T09:15:13;99680.59;;;17.39;28.78
26376;BME280;30544;42.196;24.336;2023-02-18T09:17:40;99683.38;;;17.54;28.55
26376;BME280;30544;42.196;24.336;2023-02-18T09:20:07;99685.06;;;17.55;28.17
26376;BME280;30544;42.196;24.336;2023-02-18T09:22:36;99690.13;;;17.68;28.39
26376;BME280;30544;42.196;24.336;2023-02-18T09:25:03;99694.59;;;17.64;28.77
26376;BME280;30544;42.196;24.336;2023-02-18T09:27:30;99691.19;;;17.88;28.29
26376;BME280;30544;42.196;24.336;2023-02-18T09:29:57;99691.06;;;18.23;28.03
26376;BME280;30544;42.196;24.336;2023-02-18T09:32:23;99691.44;;;18.01;27.94
26376;BME280;30544;42.196;24.336;2023-02-18T09:34:50;99685.47;;;18.13;27.59
26376;BME280;30544;42.196;24.336;2023-02-18T09:37:17;99691.78;;;17.85;27.62
26376;BME280;30544;42.196;24.336;2023-02-18T09:39:45;99689.72;;;18.16;27.31
26376;BME280;30544;42.196;24.336;2023-02-18T09:42:19;99682.41;;;18.74;26.86
26376;BME280;30544;42.196;24.336;2023-02-18T09:44:51;99682.22;;;19.39;25.88
26376;BME280;30544;42.196;24.336;2023-02-18T09:47:25;99688.75;;;18.95;26.42
26376;BME280;30544;42.196;24.336;2023-02-18T09:49:57;99675.56;;;18.90;26.40
26376;BME280;30544;42.196;24.336;2023-02-18T09:52:28;99675.75;;;18.65;26.29
26376;BME280;30544;42.196;24.336;2023-02-18T09:54:57;99663.25;;;18.86;26.19
26376;BME280;30544;42.196;24.336;2023-02-18T09:57:26;99664.09;;;19.21;26.54
26376;BME280;30544;42.196;24.336;2023-02-18T09:59:57;99643.66;;;18.71;26.79
26376;BME280;30544;42.196;24.336;2023-02-18T10:02:25;99626.13;;;19.23;26.12
26376;BME280;30544;42.196;24.336;2023-02-18T10:04:54;99643.63;;;18.81;26.23
26376;BME280;30544;42.196;24.336;2023-02-18T10:07:25;99645.59;;;18.76;25.88
26376;BME280;30544;42.196;24.336;2023-02-18T10:09:53;99644.16;;;18.78;26.47
26376;BME280;30544;42.196;24.336;2023-02-18T10:12:24;99642.34;;;18.98;26.19
26376;BME280;30544;42.196;24.336;2023-02-18T10:14:53;99634.09;;;19.11;25.83
26376;BME280;30544;42.196;24.336;2023-02-18T10:17:23;99627.72;;;19.35;26.18
26376;BME280;30544;42.196;24.336;2023-02-18T10:19:51;99629.25;;;19.51;25.58
26376;BME280;30544;42.196;24.336;2023-02-18T10:22:19;99619.97;;;19.50;25.63
26376;BME280;30544;42.196;24.336;2023-02-18T10:24:50;99615.72;;;19.82;25.27
26376;BME280;30544;42.196;24.336;2023-02-18T10:27:22;99611.44;;;19.61;25.11
26376;BME280;30544;42.196;24.336;2023-02-18T10:29:50;99598.16;;;20.33;24.88
26376;BME280;30544;42.196;24.336;2023-02-18T10:32:21;99597.28;;;20.13;24.79
26376;BME280;30544;42.196;24.336;2023-02-18T10:34:51;99593.19;;;19.82;24.90
26376;BME280;30544;42.196;24.336;2023-02-18T10:37:40;99588.47;;;20.20;24.72
26376;BME280;30544;42.196;24.336;2023-02-18T10:40:13;99585.88;;;20.24;24.49
26376;BME280;30544;42.196;24.336;2023-02-18T10:42:55;99588.63;;;20.29;24.84
26376;BME280;30544;42.196;24.336;2023-02-18T10:45:44;99589.44;;;20.10;24.58
26376;BME280;30544;42.196;24.336;2023-02-18T10:48:26;99581.59;;;20.50;24.11
26376;BME280;30544;42.196;24.336;2023-02-18T10:50:59;99578.19;;;20.29;24.61
26376;BME280;30544;42.196;24.336;2023-02-18T10:53:32;99566.44;;;20.46;25.06
26376;BME280;30544;42.196;24.336;2023-02-18T10:56:00;99575.63;;;20.33;25.13
26376;BME280;30544;42.196;24.336;2023-02-18T10:58:33;99561.50;;;20.57;24.62
26376;BME280;30544;42.196;24.336;2023-02-18T11:01:02;99559.50;;;19.96;25.01
26376;BME280;30544;42.196;24.336;2023-02-18T11:03:41;99557.44;;;20.63;24.94
26376;BME280;30544;42.196;24.336;2023-02-18T11:06:15;99555.41;;;20.68;24.58
26376;BME280;30544;42.196;24.336;2023-02-18T11:08:45;99548.00;;;21.05;24.16
26376;BME280;30544;42.196;24.336;2023-02-18T11:11:16;99552.72;;;20.58;23.83
26376;BME280;30544;42.196;24.336;2023-02-18T11:13:51;99549.00;;;20.44;24.13
26376;BME280;30544;42.196;24.336;2023-02-18T11:16:20;99541.91;;;20.65;24.21
26376;BME280;30544;42.196;24.336;2023-02-18T11:18:48;99541.75;;;20.38;24.09
26376;BME280;30544;42.196;24.336;2023-02-18T11:21:22;99538.41;;;20.73;24.13
26376;BME280;30544;42.196;24.336;2023-02-18T11:23:53;99532.03;;;21.00;24.04
26376;BME280;30544;42.196;24.336;2023-02-18T11:26:26;99531.66;;;21.21;23.76
26376;BME280;30544;42.196;24.336;2023-02-18T11:28:59;99530.72;;;20.93;23.93
26376;BME280;30544;42.196;24.336;2023-02-18T11:31:38;99520.50;;;20.97;24.22
26376;BME280;30544;42.196;24.336;2023-02-18T11:34:14;99510.06;;;21.44;23.92
26376;BME280;30544;42.196;24.336;2023-02-18T11:36:42;99507.16;;;21.62;23.66
26376;BME280;30544;42.196;24.336;2023-02-18T11:39:17;99510.16;;;21.66;23.50
26376;BME280;30544;42.196;24.336;2023-02-18T11:41:47;99501.00;;;21.74;23.41
26376;BME280;30544;42.196;24.336;2023-02-18T11:44:21;99501.41;;;21.54;23.55
26376;BME280;30544;42.196;24.336;2023-02-18T11:46:56;99496.25;;;21.83;23.16
26376;BME280;30544;42.196;24.336;2023-02-18T11:49:24;99493.88;;;21.49;23.37
26376;BME280;30544;42.196;24.336;2023-02-18T11:51:51;99492.19;;;21.89;24.02
26376;BME280;30544;42.196;24.336;2023-02-18T11:54:24;99489.13;;;22.13;23.29
26376;BME280;30544;42.196;24.336;2023-02-18T11:56:56;99484.69;;;22.57;22.55
26376;BME280;30544;42.196;24.336;2023-02-18T11:59:25;99480.28;;;22.29;22.88
26376;BME280;30544;42.196;24.336;2023-02-18T12:01:56;99473.44;;;22.43;22.75
26376;BME280;30544;42.196;24.336;2023-02-18T12:04:27;99465.00;;;21.93;23.47
26376;BME280;30544;42.196;24.336;2023-02-18T12:07:10;99462.88;;;22.13;22.98
26376;BME280;30544;42.196;24.336;2023-02-18T12:09:42;99455.47;;;22.03;23.66
26376;BME280;30544;42.196;24.336;2023-02-18T12:12:13;99461.16;;;21.76;23.77
26376;BME280;30544;42.196;24.336;2023-02-18T12:14:43;99449.97;;;21.84;24.81
26376;BME280;30544;42.196;24.336;2023-02-18T12:17:32;99452.34;;;21.91;23.92
26376;BME280;30544;42.196;24.336;2023-02-18T12:20:18;99453.06;;;22.10;24.21
26376;BME280;30544;42.196;24.336;2023-02-18T12:22:52;99448.28;;;21.83;24.54
26376;BME280;30544;42.196;24.336;2023-02-18T12:25:28;99451.19;;;21.92;24.20
26376;BME280;30544;42.196;24.336;2023-02-18T12:28:11;99452.25;;;21.82;24.23
26376;BME280;30544;42.196;24.336;2023-02-18T12:31:16;99444.56;;;21.60;23.97
26376;BME280;30544;42.196;24.336;2023-02-18T12:34:02;99436.25;;;21.78;24.31
26376;BME280;30544;42.196;24.336;2023-02-18T12:36:39;99441.72;;;22.24;23.28
26376;BME280;30544;42.196;24.336;2023-02-18T12:39:19;99431.34;;;21.83;23.82
26376;BME280;30544;42.196;24.336;2023-02-18T12:42:16;99433.16;;;22.15;23.28
26376;BME280;30544;42.196;24.336;2023-02-18T12:44:59;99427.97;;;21.95;23.99
26376;BME280;30544;42.196;24.336;2023-02-18T12:47:40;99425.53;;;22.16;24.16
26376;BME280;30544;42.196;24.336;2023-02-18T12:50:39;99425.13;;;21.59;24.94
26376;BME280;30544;42.196;24.336;2023-02-18T12:53:24;99409.41;;;21.67;24.54
26376;BME280;30544;42.196;24.336;2023-02-18T12:56:04;99402.72;;;21.76;24.72
26376;BME280;30544;42.196;24.336;2023-02-18T12:58:43;99393.91;;;21.91;25.18
26376;BME280;30544;42.196;24.336;2023-02-18T13:01:23;99394.53;;;21.88;24.93
26376;BME280;30544;42.196;24.336;2023-02-18T13:04:14;99391.94;;;22.59;24.37
26376;BME280;30544;42.196;24.336;2023-02-18T13:07:09;99394.59;;;22.56;23.84
26376;BME280;30544;42.196;24.336;2023-02-18T13:09:47;99394.19;;;22.71;24.07
26376;BME280;30544;42.196;24.336;2023-02-18T13:12:22;99399.72;;;22.54;23.83
26376;BME280;30544;42.196;24.336;2023-02-18T13:14:52;99397.66;;;22.45;24.12
26376;BME280;30544;42.196;24.336;2023-02-18T13:17:23;99394.84;;;22.23;24.39
26376;BME280;30544;42.196;24.336;2023-02-18T13:19:56;99397.06;;;21.76;24.93
26376;BME280;30544;42.196;24.336;2023-02-18T13:22:26;99390.25;;;21.91;25.00